Time;durP1;ratioP1;P1;durP2;ratioP2;P2;SDS_P1;SDS_P2;PMS_P1;PMS_P2;Temp;Humidity;BMP_temperature;BMP_pressure;BME280_temperature;BME280_humidity;BME280_pressure;Samples;Min_cycle;Max_cycle;Signal;HPM_P1;HPM_P2
2020/12/17 00:02:00;;;;;;;20.65;10.88;;;10.60;99.90;;;;;;5056124;28;20040;-74
2020/12/17 00:04:27;;;;;;;17.20;9.15;;;10.60;99.90;;;;;;5055354;28;20036;-75
2020/12/17 00:06:54;;;;;;;13.45;8.68;;;10.60;99.90;;;;;;5056770;28;20118;-75
2020/12/17 00:09:21;;;;;;;15.73;9.43;;;10.60;99.90;;;;;;5056739;28;20032;-74
2020/12/17 00:11:46;;;;;;;11.38;7.43;;;10.60;99.90;;;;;;5052861;28;20064;-73
2020/12/17 00:14:12;;;;;;;10.98;7.90;;;10.60;99.90;;;;;;5057207;28;20562;-74
2020/12/17 00:16:39;;;;;;;12.43;8.70;;;10.70;99.90;;;;;;5055688;28;20098;-74
2020/12/17 00:19:05;;;;;;;10.82;8.25;;;10.70;99.90;;;;;;5057033;28;20021;-74
2020/12/17 00:21:32;;;;;;;8.35;6.68;;;10.70;99.90;;;;;;5057016;28;20120;-74
2020/12/17 00:23:58;;;;;;;10.45;6.65;;;10.70;99.90;;;;;;5053858;28;20063;-74
2020/12/17 00:26:26;;;;;;;6.82;5.75;;;10.70;99.90;;;;;;5054935;28;20049;-75
2020/12/17 00:28:52;;;;;;;5.93;5.32;;;10.70;99.90;;;;;;5062705;28;20104;-75
2020/12/17 00:31:18;;;;;;;7.85;6.20;;;10.70;99.90;;;;;;5063109;28;20036;-74
2020/12/17 00:33:45;;;;;;;10.63;7.13;;;10.70;99.90;;;;;;5058835;28;20017;-75
2020/12/17 00:36:11;;;;;;;10.23;5.32;;;10.70;99.90;;;;;;5058252;28;20659;-75
2020/12/17 00:38:37;;;;;;;9.48;6.32;;;10.70;99.90;;;;;;5055678;28;20028;-75
2020/12/17 00:41:02;;;;;;;8.07;5.90;;;10.80;99.90;;;;;;5055510;28;20043;-75
2020/12/17 00:43:28;;;;;;;6.35;5.28;;;10.80;99.90;;;;;;5056072;28;20060;-74
2020/12/17 00:45:54;;;;;;;7.97;5.43;;;10.80;99.90;;;;;;5054634;28;20036;-75
2020/12/17 00:48:20;;;;;;;9.18;5.88;;;10.80;99.90;;;;;;5054621;28;20017;-75
2020/12/17 00:50:45;;;;;;;8.10;6.40;;;10.80;99.90;;;;;;5054357;28;20029;-75
2020/12/17 00:53:12;;;;;;;15.10;6.90;;;10.70;99.90;;;;;;5060503;28;20025;-74
2020/12/17 00:55:37;;;;;;;9.63;5.28;;;10.60;99.90;;;;;;5057937;28;20164;-75
2020/12/17 00:58:03;;;;;;;7.10;5.55;;;10.60;99.90;;;;;;5059409;28;20103;-75
2020/12/17 01:00:29;;;;;;;8.55;6.53;;;10.70;99.90;;;;;;5057957;28;20029;-75
2020/12/17 01:02:54;;;;;;;7.80;6.10;;;10.70;99.90;;;;;;5056077;28;20063;-74
2020/12/17 01:05:20;;;;;;;9.00;6.13;;;10.70;99.90;;;;;;5053331;28;20032;-75
2020/12/17 01:07:45;;;;;;;8.30;5.40;;;10.70;99.90;;;;;;5053976;28;20037;-75
2020/12/17 01:10:11;;;;;;;8.35;5.65;;;10.70;99.90;;;;;;5064995;28;20074;-75
2020/12/17 01:12:40;;;;;;;11.98;6.43;;;10.70;99.90;;;;;;5055440;28;20064;-75
2020/12/17 01:15:05;;;;;;;8.45;5.88;;;10.70;99.90;;;;;;5052561;28;20384;-75
2020/12/17 01:17:31;;;;;;;7.57;5.53;;;10.70;99.90;;;;;;5057813;28;20386;-75
2020/12/17 01:19:56;;;;;;;7.82;5.93;;;10.80;99.90;;;;;;5054515;28;20044;-75
2020/12/17 01:22:23;;;;;;;7.40;6.03;;;10.80;99.90;;;;;;5058659;28;20013;-75
2020/12/17 01:24:49;;;;;;;15.10;6.55;;;10.80;99.90;;;;;;5051699;28;20628;-76
2020/12/17 01:27:14;;;;;;;9.40;6.50;;;10.90;99.90;;;;;;5053443;28;20112;-76
2020/12/17 01:29:40;;;;;;;8.48;6.10;;;10.80;99.90;;;;;;5052982;28;20033;-75
2020/12/17 01:32:05;;;;;;;8.15;6.22;;;10.90;99.90;;;;;;5060138;28;20032;-75
2020/12/17 01:34:31;;;;;;;13.48;5.20;;;10.90;99.90;;;;;;5056789;28;20047;-75
2020/12/17 01:36:57;;;;;;;8.23;5.45;;;10.80;99.90;;;;;;5058054;28;20017;-75
2020/12/17 01:39:24;;;;;;;9.38;6.28;;;10.90;99.90;;;;;;5052653;28;20025;-75
2020/12/17 01:41:50;;;;;;;8.35;6.25;;;10.80;99.90;;;;;;5054669;28;20073;-75
2020/12/17 01:44:16;;;;;;;10.45;5.93;;;10.80;99.90;;;;;;5056729;28;20392;-75
2020/12/17 01:46:42;;;;;;;9.75;6.53;;;10.80;99.90;;;;;;5055920;28;20041;-75
2020/12/17 01:49:07;;;;;;;6.30;5.65;;;10.90;99.90;;;;;;5058955;28;20107;-75
2020/12/17 01:51:33;;;;;;;10.13;6.32;;;10.90;99.90;;;;;;5057539;28;20103;-75
2020/12/17 01:53:59;;;;;;;13.88;6.47;;;10.80;99.90;;;;;;5058399;28;20024;-74
2020/12/17 01:56:27;;;;;;;10.05;5.80;;;10.90;99.90;;;;;;5056771;28;20079;-74
2020/12/17 01:59:22;;;;;;;8.50;5.63;;;10.80;99.90;;;;;;5053011;28;20025;-75
2020/12/17 02:01:49;;;;;;;8.70;5.75;;;10.90;99.90;;;;;;5052057;28;20029;-75
2020/12/17 02:04:19;;;;;;;11.23;5.65;;;10.90;99.90;;;;;;5056230;28;20032;-75
2020/12/17 02:06:47;;;;;;;9.48;5.90;;;10.90;99.90;;;;;;5053016;28;20443;-75
2020/12/17 02:09:15;;;;;;;14.80;6.60;;;11.00;99.90;;;;;;5053560;28;20096;-75
2020/12/17 02:11:41;;;;;;;7.85;6.25;;;11.00;99.90;;;;;;5055480;28;20037;-75
2020/12/17 02:14:06;;;;;;;6.95;6.03;;;10.90;99.90;;;;;;5061560;28;20044;-75
2020/12/17 02:16:32;;;;;;;10.48;5.57;;;10.90;99.90;;;;;;5055760;28;20056;-76
2020/12/17 02:18:58;;;;;;;9.45;6.05;;;10.90;99.90;;;;;;5054688;28;20478;-76
2020/12/17 02:21:24;;;;;;;8.20;5.38;;;10.90;99.90;;;;;;5055651;28;20031;-75
2020/12/17 02:23:50;;;;;;;11.32;6.05;;;11.00;99.90;;;;;;5055205;28;20039;-75
2020/12/17 02:26:15;;;;;;;11.10;5.68;;;11.00;99.90;;;;;;5056708;28;20037;-75
2020/12/17 02:28:42;;;;;;;11.55;5.90;;;11.00;99.90;;;;;;5053177;28;20477;-75
2020/12/17 02:31:08;;;;;;;8.10;6.30;;;11.00;99.90;;;;;;5062637;28;20017;-75
2020/12/17 02:33:33;;;;;;;9.98;6.30;;;11.00;99.90;;;;;;5055970;28;20052;-75
2020/12/17 02:35:59;;;;;;;9.00;6.35;;;11.00;99.90;;;;;;5058556;28;20120;-75
2020/12/17 02:38:25;;;;;;;7.47;5.97;;;11.00;99.90;;;;;;5059237;28;20025;-75
2020/12/17 02:40:51;;;;;;;9.77;6.03;;;10.90;99.90;;;;;;5059545;28;20111;-74
2020/12/17 02:43:17;;;;;;;7.80;6.10;;;11.00;99.90;;;;;;5062555;28;20025;-74
2020/12/17 02:45:47;;;;;;;10.13;6.70;;;11.00;99.90;;;;;;5057271;28;20082;-74
2020/12/17 02:48:13;;;;;;;11.23;7.35;;;11.00;99.90;;;;;;5060165;28;20028;-74
2020/12/17 02:50:39;;;;;;;9.65;7.80;;;10.90;99.90;;;;;;5064530;28;20036;-74
2020/12/17 02:53:06;;;;;;;9.57;6.88;;;11.00;99.90;;;;;;5057155;28;20091;-75
2020/12/17 02:55:31;;;;;;;10.55;7.07;;;11.00;99.90;;;;;;5058670;28;20629;-74
2020/12/17 02:57:57;;;;;;;11.27;6.72;;;11.00;99.90;;;;;;5061436;28;20032;-74
2020/12/17 03:00:23;;;;;;;9.77;6.90;;;11.00;99.90;;;;;;5054794;28;20099;-74
2020/12/17 03:02:48;;;;;;;10.77;7.40;;;11.00;99.90;;;;;;5064179;28;20028;-74
2020/12/17 03:05:14;;;;;;;12.25;8.05;;;11.00;99.90;;;;;;5057995;28;20521;-75
2020/12/17 03:07:40;;;;;;;11.75;7.43;;;11.10;99.90;;;;;;5057937;28;20424;-75
2020/12/17 03:10:06;;;;;;;9.93;7.00;;;11.00;99.90;;;;;;5059194;28;20064;-75
2020/12/17 03:12:32;;;;;;;11.65;8.25;;;11.10;99.90;;;;;;5063194;28;20047;-75
2020/12/17 03:14:58;;;;;;;10.38;8.23;;;11.00;99.90;;;;;;5063687;28;20478;-75
2020/12/17 03:17:24;;;;;;;9.20;6.78;;;11.00;99.90;;;;;;5059861;28;20367;-74
2020/12/17 03:19:49;;;;;;;12.80;7.90;;;11.00;99.90;;;;;;5059293;28;20024;-74
2020/12/17 03:22:15;;;;;;;12.30;8.02;;;11.10;99.90;;;;;;5060547;28;20025;-74
2020/12/17 03:24:41;;;;;;;10.18;7.10;;;11.10;99.90;;;;;;5060954;28;20354;-74
2020/12/17 03:27:06;;;;;;;11.55;7.80;;;11.10;99.90;;;;;;5061369;28;20041;-74
2020/12/17 03:29:32;;;;;;;11.63;8.30;;;11.10;99.90;;;;;;5062007;28;20052;-74
2020/12/17 03:31:57;;;;;;;11.63;8.75;;;11.10;99.90;;;;;;5059089;28;20052;-74
2020/12/17 03:34:23;;;;;;;13.48;8.70;;;11.10;99.90;;;;;;5058395;28;20025;-74
2020/12/17 03:36:49;;;;;;;17.58;11.23;;;11.00;99.90;;;;;;5065632;28;20039;-74
2020/12/17 03:39:15;;;;;;;14.55;10.00;;;11.10;99.90;;;;;;5063367;28;20534;-74
2020/12/17 03:41:40;;;;;;;19.50;10.18;;;11.10;99.90;;;;;;5053949;28;20029;-74
2020/12/17 03:44:06;;;;;;;18.63;9.90;;;11.10;99.90;;;;;;5059431;28;20465;-74
2020/12/17 03:46:31;;;;;;;14.98;10.45;;;11.00;99.90;;;;;;5060112;28;20037;-74
2020/12/17 03:48:57;;;;;;;16.95;10.50;;;11.10;99.90;;;;;;5059622;28;20025;-74
2020/12/17 03:51:23;;;;;;;19.77;10.70;;;11.00;99.90;;;;;;5057518;28;20382;-74
2020/12/17 03:53:48;;;;;;;16.90;11.35;;;11.10;99.90;;;;;;5054874;28;20044;-74
2020/12/17 03:56:14;;;;;;;16.52;11.27;;;11.10;99.90;;;;;;5059526;28;20492;-74
2020/12/17 03:58:40;;;;;;;19.88;12.40;;;11.10;99.90;;;;;;5056554;28;20029;-74
2020/12/17 04:01:05;;;;;;;19.65;11.65;;;11.10;99.90;;;;;;5058796;28;20389;-74
2020/12/17 04:03:31;;;;;;;18.38;12.25;;;11.00;99.90;;;;;;5055561;28;20102;-74
2020/12/17 04:05:57;;;;;;;21.50;13.02;;;11.00;99.90;;;;;;5058150;28;20029;-74
2020/12/17 04:08:22;;;;;;;18.25;12.48;;;11.10;99.90;;;;;;5055238;28;20462;-75
2020/12/17 04:10:48;;;;;;;21.63;13.30;;;11.10;99.90;;;;;;5060612;28;20530;-75
2020/12/17 04:13:13;;;;;;;22.92;13.35;;;11.00;99.90;;;;;;5058146;28;20032;-75
2020/12/17 04:15:39;;;;;;;21.38;14.82;;;11.00;99.90;;;;;;5058316;28;20036;-75
2020/12/17 04:18:05;;;;;;;21.33;14.05;;;11.00;99.90;;;;;;5062667;28;20554;-75
2020/12/17 04:20:30;;;;;;;22.17;13.82;;;11.00;99.90;;;;;;5060133;28;20028;-75
2020/12/17 04:22:56;;;;;;;18.70;12.98;;;11.00;99.90;;;;;;5064465;28;20016;-74
2020/12/17 04:25:21;;;;;;;21.98;10.43;;;11.00;99.90;;;;;;5055041;28;20041;-74
2020/12/17 04:27:47;;;;;;;18.67;10.60;;;11.00;99.90;;;;;;5065107;28;20029;-74
2020/12/17 04:30:13;;;;;;;18.60;10.55;;;10.90;99.90;;;;;;5056802;28;20020;-74
2020/12/17 04:32:38;;;;;;;16.10;9.98;;;10.90;99.90;;;;;;5056013;28;20092;-75
2020/12/17 04:35:04;;;;;;;15.63;10.18;;;10.90;99.90;;;;;;5056263;28;20469;-74
2020/12/17 04:37:30;;;;;;;15.82;9.88;;;11.00;99.90;;;;;;5054704;28;20021;-74
2020/12/17 04:39:55;;;;;;;25.77;11.18;;;11.00;99.90;;;;;;5058318;28;20070;-74
2020/12/17 04:42:23;;;;;;;17.70;10.43;;;11.00;99.90;;;;;;5060894;28;20052;-74
2020/12/17 04:44:49;;;;;;;22.58;11.15;;;11.00;99.90;;;;;;5061527;28;20115;-74
2020/12/17 04:47:19;;;;;;;17.35;10.55;;;10.90;99.90;;;;;;5062867;28;20036;-74
2020/12/17 04:49:50;;;;;;;22.98;12.93;;;10.90;99.90;;;;;;5058244;28;20604;-74
2020/12/17 04:52:16;;;;;;;21.30;11.40;;;11.00;99.90;;;;;;5056098;28;20052;-74
2020/12/17 04:54:42;;;;;;;21.20;11.75;;;11.00;99.90;;;;;;5054432;28;20053;-74
2020/12/17 04:57:09;;;;;;;17.40;11.55;;;11.10;99.90;;;;;;5069327;28;20032;-74
2020/12/17 04:59:55;;;;;;;18.33;11.52;;;11.10;99.90;;;;;;5058675;28;20021;-74
2020/12/17 05:02:22;;;;;;;17.30;11.85;;;11.00;99.90;;;;;;5063239;28;20044;-74
2020/12/17 05:04:49;;;;;;;18.73;11.63;;;11.10;99.90;;;;;;5057929;28;20054;-74
2020/12/17 05:07:17;;;;;;;16.65;12.27;;;11.00;99.90;;;;;;5052736;28;20033;-74
2020/12/17 05:09:44;;;;;;;19.25;13.52;;;11.00;99.90;;;;;;5058681;28;20542;-74
2020/12/17 05:12:11;;;;;;;18.67;13.13;;;11.10;99.90;;;;;;5059602;28;20123;-74
2020/12/17 05:14:37;;;;;;;19.38;12.30;;;11.00;99.90;;;;;;5060588;28;20586;-74
2020/12/17 05:17:04;;;;;;;16.92;12.63;;;11.10;99.90;;;;;;5052939;28;20020;-74
2020/12/17 05:19:29;;;;;;;18.73;12.38;;;11.10;99.90;;;;;;5056665;28;20088;-74
2020/12/17 05:21:57;;;;;;;18.92;12.45;;;11.00;99.90;;;;;;5067186;28;20389;-74
2020/12/17 05:24:24;;;;;;;20.05;12.48;;;11.00;99.90;;;;;;5063924;28;20028;-74
2020/12/17 05:26:54;;;;;;;20.15;12.57;;;11.00;99.90;;;;;;5055250;28;20167;-74
2020/12/17 05:29:21;;;;;;;19.80;12.98;;;11.10;99.90;;;;;;5057144;28;20028;-74
2020/12/17 05:31:47;;;;;;;18.35;12.68;;;11.00;99.90;;;;;;5061976;28;20428;-74
2020/12/17 05:34:13;;;;;;;20.67;12.98;;;11.10;99.90;;;;;;5055233;28;20021;-75
2020/12/17 05:36:46;;;;;;;15.43;9.63;;;11.10;99.90;;;;;;5056233;28;20061;-73
2020/12/17 05:39:17;;;;;;;21.48;12.88;;;11.10;99.90;;;;;;5055164;28;20033;-75
2020/12/17 05:41:47;;;;;;;18.63;12.68;;;11.20;99.90;;;;;;5052875;28;20033;-75
2020/12/17 05:44:14;;;;;;;19.30;12.82;;;11.20;99.90;;;;;;5057023;28;20021;-75
2020/12/17 05:46:42;;;;;;;20.70;12.93;;;11.10;99.90;;;;;;5055056;28;20076;-74
2020/12/17 05:49:37;;;;;;;24.92;12.32;;;11.20;99.90;;;;;;5058880;28;20424;-75
2020/12/17 05:52:11;;;;;;;20.48;13.27;;;11.20;99.90;;;;;;5059588;28;20063;-74
2020/12/17 05:54:41;;;;;;;22.80;14.07;;;11.20;99.90;;;;;;5051983;28;20464;-74
2020/12/17 05:57:13;;;;;;;23.15;13.68;;;11.10;99.90;;;;;;5058079;28;20060;-75
2020/12/17 05:59:40;;;;;;;23.30;15.68;;;11.10;99.90;;;;;;5051219;28;20115;-74
2020/12/17 06:02:23;;;;;;;20.98;13.13;;;11.10;99.90;;;;;;5058018;28;20028;-75
2020/12/17 06:05:01;;;;;;;20.33;13.47;;;11.10;99.90;;;;;;5053680;28;20036;-75
2020/12/17 06:07:51;;;;;;;20.13;13.35;;;11.00;99.90;;;;;;5057101;28;20253;-74
2020/12/17 06:10:22;;;;;;;22.40;13.55;;;10.90;99.90;;;;;;5051681;28;20120;-75
2020/12/17 06:12:53;;;;;;;22.52;14.65;;;11.00;99.90;;;;;;5059213;28;20117;-75
2020/12/17 06:15:20;;;;;;;27.65;14.40;;;11.00;99.90;;;;;;5057811;28;20029;-75
2020/12/17 06:17:58;;;;;;;27.52;16.30;;;10.90;99.90;;;;;;5061914;28;20040;-74
2020/12/17 06:20:25;;;;;;;22.55;14.85;;;10.90;99.90;;;;;;5060124;28;20040;-75
2020/12/17 06:22:56;;;;;;;26.23;15.15;;;10.90;99.90;;;;;;5053660;28;20035;-75
2020/12/17 06:25:23;;;;;;;28.30;15.65;;;10.90;99.90;;;;;;5055241;28;20167;-75
2020/12/17 06:27:50;;;;;;;24.25;14.98;;;10.90;99.90;;;;;;5051370;28;20028;-75
2020/12/17 06:30:24;;;;;;;24.58;14.02;;;11.00;99.90;;;;;;5056543;28;20106;-76
2020/12/17 06:32:53;;;;;;;18.30;12.50;;;10.90;99.90;;;;;;5051538;28;20112;-74
2020/12/17 06:35:41;;;;;;;20.27;13.18;;;10.90;99.90;;;;;;5054062;28;20351;-74
2020/12/17 06:38:09;;;;;;;20.23;12.68;;;10.90;99.90;;;;;;5056200;28;20033;-75
2020/12/17 06:40:35;;;;;;;20.17;13.75;;;10.90;99.90;;;;;;5060942;28;20130;-74
2020/12/17 06:43:00;;;;;;;21.52;12.45;;;10.90;99.90;;;;;;5062712;28;20461;-74
2020/12/17 06:45:35;;;;;;;21.50;13.55;;;10.90;99.90;;;;;;5052672;28;20170;-75
2020/12/17 06:48:38;;;;;;;23.17;14.38;;;10.90;99.90;;;;;;5058654;28;20478;-75
2020/12/17 06:51:32;;;;;;;22.30;13.88;;;10.90;99.90;;;;;;5062043;28;20021;-75
2020/12/17 06:53:59;;;;;;;20.65;12.15;;;10.80;99.90;;;;;;5058613;28;20037;-76
2020/12/17 06:56:25;;;;;;;24.60;13.30;;;10.80;99.90;;;;;;5063026;28;20423;-76
2020/12/17 06:59:17;;;;;;;18.25;11.45;;;10.80;99.90;;;;;;5057071;28;20033;-76
2020/12/17 07:01:44;;;;;;;20.33;12.48;;;10.80;99.90;;;;;;5058328;28;20017;-76
2020/12/17 07:04:11;;;;;;;20.98;11.60;;;10.80;99.90;;;;;;5053904;28;20063;-75
2020/12/17 07:06:36;;;;;;;20.45;12.70;;;10.80;99.90;;;;;;5058883;28;20036;-74
2020/12/17 07:09:03;;;;;;;18.20;11.40;;;10.70;99.90;;;;;;5059825;28;20017;-75
2020/12/17 07:11:36;;;;;;;16.52;11.32;;;10.80;99.90;;;;;;5051775;28;20371;-75
2020/12/17 07:14:06;;;;;;;;;;;10.80;99.90;;;;;;5058609;28;20592;-73
2020/12/17 07:16:33;;;;;;;15.05;10.07;;;10.70;99.90;;;;;;5058679;28;19913;-75
2020/12/17 07:19:18;;;;;;;17.55;10.32;;;10.80;99.90;;;;;;5054295;28;20028;-75
2020/12/17 07:21:44;;;;;;;13.50;9.18;;;10.70;99.90;;;;;;5055412;28;20516;-75
2020/12/17 07:24:25;;;;;;;15.05;9.90;;;10.70;99.90;;;;;;5056881;28;20041;-75
2020/12/17 07:26:52;;;;;;;13.63;8.85;;;10.70;99.90;;;;;;5053051;28;20559;-75
2020/12/17 07:29:18;;;;;;;16.73;9.07;;;10.70;99.90;;;;;;5051893;28;20029;-75
2020/12/17 07:31:44;;;;;;;15.63;8.95;;;10.70;99.90;;;;;;5057414;28;20104;-76
2020/12/17 07:34:16;;;;;;;15.18;9.23;;;10.70;99.90;;;;;;5055110;28;20038;-75
2020/12/17 07:36:47;;;;;;;17.30;9.30;;;10.60;99.90;;;;;;5059572;28;20032;-75
2020/12/17 07:39:13;;;;;;;16.50;8.85;;;10.70;99.90;;;;;;5057513;28;20012;-75
2020/12/17 07:41:39;;;;;;;15.93;8.55;;;10.70;99.90;;;;;;5061239;28;20124;-75
2020/12/17 07:44:04;;;;;;;13.63;8.57;;;10.60;99.90;;;;;;5064493;28;20021;-75
2020/12/17 07:46:41;;;;;;;14.40;8.15;;;10.60;99.90;;;;;;5056769;28;20041;-75
2020/12/17 07:49:23;;;;;;;14.60;8.57;;;10.60;99.90;;;;;;5057671;28;20440;-75
2020/12/17 07:51:49;;;;;;;15.95;8.35;;;10.50;99.90;;;;;;5055675;28;20028;-75
2020/12/17 07:54:19;;;;;;;14.98;8.52;;;10.40;99.90;;;;;;5060439;28;20481;-75
2020/12/17 07:56:46;;;;;;;11.88;7.30;;;10.40;99.90;;;;;;5052570;28;20048;-75
2020/12/17 07:59:11;;;;;;;9.95;6.88;;;10.40;99.90;;;;;;5048698;28;20021;-75
2020/12/17 08:01:37;;;;;;;12.18;7.20;;;10.30;99.90;;;;;;5058197;28;20051;-75
2020/12/17 08:04:02;;;;;;;11.68;7.18;;;10.40;99.90;;;;;;5063953;28;20099;-75
2020/12/17 08:06:29;;;;;;;9.20;6.65;;;10.40;99.90;;;;;;5057692;28;20370;-75
2020/12/17 08:08:58;;;;;;;13.50;7.03;;;10.30;99.90;;;;;;5056255;28;20025;-75
2020/12/17 08:11:27;;;;;;;13.93;6.30;;;10.40;99.90;;;;;;5056942;28;20025;-75
2020/12/17 08:14:11;;;;;;;8.77;6.68;;;10.30;99.90;;;;;;5061915;28;20013;-75
2020/12/17 08:16:36;;;;;;;11.98;5.95;;;10.20;99.90;;;;;;5058635;28;20104;-75
2020/12/17 08:19:03;;;;;;;8.77;6.20;;;10.30;99.90;;;;;;5056719;28;20108;-75
2020/12/17 08:21:29;;;;;;;6.95;4.78;;;10.30;99.90;;;;;;5058390;28;20035;-75
2020/12/17 08:23:55;;;;;;;10.02;5.75;;;10.30;99.90;;;;;;5058106;28;20025;-75
2020/12/17 08:26:29;;;;;;;9.07;6.30;;;10.30;99.90;;;;;;5056981;28;20059;-75
2020/12/17 08:28:55;;;;;;;7.75;5.53;;;10.30;99.90;;;;;;5059347;28;20025;-75
2020/12/17 08:31:27;;;;;;;31.27;27.30;;;10.30;99.90;;;;;;5060425;28;20057;-75
2020/12/17 08:34:00;;;;;;;10.40;6.47;;;10.40;99.90;;;;;;5054850;28;20085;-75
2020/12/17 08:36:34;;;;;;;10.35;6.07;;;10.40;99.90;;;;;;5053179;28;20037;-75
2020/12/17 08:39:02;;;;;;;10.45;6.80;;;10.40;99.90;;;;;;5056077;28;20040;-75
2020/12/17 08:41:36;;;;;;;8.98;5.68;;;10.40;99.90;;;;;;5054661;28;20057;-76
2020/12/17 08:44:04;;;;;;;11.93;9.30;;;10.40;99.90;;;;;;5056045;28;20489;-75
2020/12/17 08:46:45;;;;;;;5.97;5.35;;;10.40;99.90;;;;;;5055288;28;20501;-75
2020/12/17 08:49:12;;;;;;;9.00;5.28;;;10.40;99.90;;;;;;5051777;28;20047;-75
2020/12/17 08:51:45;;;;;;;22.95;17.98;;;10.40;99.90;;;;;;5047492;28;20112;-75
2020/12/17 08:54:32;;;;;;;8.90;6.75;;;10.40;99.90;;;;;;5065048;28;20032;-75
2020/12/17 08:57:11;;;;;;;6.32;4.90;;;10.40;99.90;;;;;;5059460;28;20079;-75
2020/12/17 08:59:38;;;;;;;7.32;5.03;;;10.30;99.90;;;;;;5062646;28;20182;-75
2020/12/17 09:02:05;;;;;;;17.42;11.00;;;10.30;99.90;;;;;;5064262;28;20086;-75
2020/12/17 09:04:30;;;;;;;7.63;4.60;;;10.40;99.90;;;;;;5060606;28;20111;-76
2020/12/17 09:06:59;;;;;;;6.80;4.80;;;10.40;99.90;;;;;;5060150;28;20111;-76
2020/12/17 09:09:27;;;;;;;11.80;5.10;;;10.30;99.90;;;;;;5061737;28;20074;-76
2020/12/17 09:11:55;;;;;;;5.72;4.93;;;10.30;99.90;;;;;;5058286;28;20070;-76
2020/12/17 09:14:28;;;;;;;7.30;4.85;;;10.30;99.90;;;;;;5058025;28;20111;-76
2020/12/17 09:16:54;;;;;;;15.88;11.23;;;10.40;99.90;;;;;;5060654;28;20028;-76
2020/12/17 09:19:20;;;;;;;12.70;9.68;;;10.40;99.90;;;;;;5057347;28;20111;-76
2020/12/17 09:21:54;;;;;;;10.27;6.10;;;10.40;99.90;;;;;;5056123;28;20564;-76
2020/12/17 09:24:40;;;;;;;9.18;5.43;;;10.50;99.90;;;;;;5053679;28;20025;-76
2020/12/17 09:27:22;;;;;;;9.20;5.70;;;10.50;99.90;;;;;;5055042;28;20504;-76
2020/12/17 09:30:06;;;;;;;9.43;6.77;;;10.50;99.90;;;;;;5054612;28;20021;-76
2020/12/17 09:32:35;;;;;;;10.13;5.82;;;10.60;99.90;;;;;;5055194;28;20779;-76
2020/12/17 09:35:04;;;;;;;12.27;6.78;;;10.60;99.90;;;;;;5054619;28;20070;-76
2020/12/17 09:37:31;;;;;;;9.70;5.47;;;10.60;99.90;;;;;;5052378;28;20028;-76
2020/12/17 09:39:57;;;;;;;12.95;5.28;;;10.50;99.90;;;;;;5053040;28;20025;-76
2020/12/17 09:42:23;;;;;;;14.55;5.95;;;10.50;99.90;;;;;;5053794;28;20040;-76
2020/12/17 09:44:49;;;;;;;6.95;4.72;;;10.50;99.90;;;;;;5052011;28;20029;-76
2020/12/17 09:47:32;;;;;;;11.65;5.30;;;10.50;99.90;;;;;;5054366;28;20507;-76
2020/12/17 09:50:08;;;;;;;10.38;6.15;;;10.60;99.90;;;;;;5054225;28;20021;-76
2020/12/17 09:52:34;;;;;;;11.25;5.90;;;10.60;99.90;;;;;;5063120;28;20047;-76
2020/12/17 09:55:00;;;;;;;13.82;5.78;;;10.60;99.90;;;;;;5060476;28;20025;-76
2020/12/17 09:57:35;;;;;;;7.85;4.65;;;10.50;99.90;;;;;;5052673;28;20033;-76
2020/12/17 10:00:00;;;;;;;11.77;5.95;;;10.60;99.90;;;;;;5054424;28;20025;-76
2020/12/17 10:02:26;;;;;;;12.73;5.10;;;10.60;99.90;;;;;;5055043;28;20385;-76
2020/12/17 10:04:51;;;;;;;8.93;6.30;;;10.60;99.90;;;;;;5055794;28;20013;-76
2020/12/17 10:07:17;;;;;;;10.45;5.03;;;10.70;99.90;;;;;;5051090;28;20657;-76
2020/12/17 10:09:43;;;;;;;14.60;5.53;;;10.60;99.90;;;;;;5049981;28;20079;-76
2020/12/17 10:12:08;;;;;;;14.02;6.57;;;10.60;99.90;;;;;;5049922;28;20040;-76
2020/12/17 10:14:34;;;;;;;12.88;5.35;;;10.70;99.90;;;;;;5060546;28;20028;-76
2020/12/17 10:17:01;;;;;;;14.73;6.40;;;10.80;99.90;;;;;;5055952;28;20111;-76
2020/12/17 10:19:28;;;;;;;8.20;5.38;;;10.80;99.90;;;;;;5065210;28;20070;-76
2020/12/17 10:21:54;;;;;;;12.30;5.32;;;10.70;99.90;;;;;;5066129;28;20397;-76
2020/12/17 10:24:19;;;;;;;7.97;5.00;;;10.70;99.90;;;;;;5058782;28;20029;-76
2020/12/17 10:26:45;;;;;;;11.95;5.70;;;10.70;99.90;;;;;;5052071;28;20043;-76
2020/12/17 10:29:11;;;;;;;9.93;5.75;;;10.70;99.90;;;;;;5056465;28;20488;-75
2020/12/17 10:31:36;;;;;;;12.70;5.60;;;10.80;99.90;;;;;;5053824;28;20528;-76
2020/12/17 10:34:02;;;;;;;7.43;5.20;;;10.80;99.90;;;;;;5052198;28;20017;-76
2020/12/17 10:36:28;;;;;;;10.65;5.30;;;10.80;99.90;;;;;;5051851;28;20037;-76
2020/12/17 10:38:54;;;;;;;10.43;5.30;;;10.90;99.90;;;;;;5051868;28;20036;-76
2020/12/17 10:41:28;;;;;;;7.10;4.70;;;10.90;99.90;;;;;;5050128;28;20487;-75
2020/12/17 10:43:54;;;;;;;9.43;5.78;;;10.90;99.90;;;;;;5050877;28;20028;-76
2020/12/17 10:46:20;;;;;;;10.30;5.18;;;10.90;99.90;;;;;;5054818;28;20104;-76
2020/12/17 10:48:46;;;;;;;9.65;5.18;;;10.90;99.90;;;;;;5054103;28;20059;-76
2020/12/17 10:51:16;;;;;;;11.38;4.70;;;11.00;99.90;;;;;;5050820;28;20028;-77
2020/12/17 10:53:42;;;;;;;11.68;4.50;;;10.90;99.90;;;;;;5057317;28;20052;-76
2020/12/17 10:56:09;;;;;;;10.52;5.90;;;10.90;99.90;;;;;;5055074;28;20449;-76
2020/12/17 10:58:35;;;;;;;12.20;5.50;;;10.90;99.90;;;;;;5052555;28;20481;-75
2020/12/17 11:01:01;;;;;;;15.95;5.30;;;10.90;99.90;;;;;;5055293;28;20025;-76
2020/12/17 11:03:26;;;;;;;13.25;5.25;;;10.90;99.90;;;;;;5053226;28;20029;-75
2020/12/17 11:05:53;;;;;;;11.82;4.35;;;10.90;99.90;;;;;;5055772;28;20025;-76
2020/12/17 11:08:19;;;;;;;6.72;3.85;;;11.00;99.90;;;;;;5059825;28;20025;-76
2020/12/17 11:10:45;;;;;;;13.43;5.43;;;10.90;99.90;;;;;;5056048;28;20107;-75
2020/12/17 11:13:11;;;;;;;9.50;3.80;;;11.00;99.90;;;;;;5059631;28;20488;-75
2020/12/17 11:15:36;;;;;;;6.70;3.13;;;11.00;99.90;;;;;;5056429;28;20024;-75
2020/12/17 11:18:02;;;;;;;11.80;4.00;;;11.00;99.90;;;;;;5056474;28;20370;-75
2020/12/17 11:20:27;;;;;;;11.23;3.67;;;10.90;99.90;;;;;;5065638;28;20082;-76
2020/12/17 11:22:53;;;;;;;8.52;3.30;;;10.90;99.90;;;;;;5062719;28;20021;-75
2020/12/17 11:25:19;;;;;;;13.45;3.70;;;10.90;99.90;;;;;;5063021;28;20033;-75
2020/12/17 11:27:44;;;;;;;9.85;3.28;;;10.80;99.90;;;;;;5060068;28;20037;-75
2020/12/17 11:30:10;;;;;;;8.82;3.10;;;10.80;99.90;;;;;;5052974;28;20044;-75
2020/12/17 11:32:36;;;;;;;11.02;2.80;;;10.90;99.90;;;;;;5060297;28;20028;-76
2020/12/17 11:35:06;;;;;;;10.68;3.10;;;10.80;99.90;;;;;;5058707;28;20031;-75
2020/12/17 11:37:33;;;;;;;9.30;3.92;;;10.90;99.90;;;;;;5053821;28;20024;-75
2020/12/17 11:39:59;;;;;;;10.63;2.80;;;11.00;99.90;;;;;;5058340;28;20021;-75
2020/12/17 11:42:25;;;;;;;9.82;3.00;;;11.10;99.90;;;;;;5060133;28;20051;-75
2020/12/17 11:44:51;;;;;;;6.38;2.80;;;11.00;99.90;;;;;;5056497;28;20024;-75
2020/12/17 11:47:16;;;;;;;8.05;2.70;;;11.00;99.90;;;;;;5058189;28;20032;-75
2020/12/17 11:49:42;;;;;;;10.45;2.95;;;11.10;99.90;;;;;;5055283;28;20029;-75
2020/12/17 11:52:08;;;;;;;4.97;2.28;;;11.20;99.90;;;;;;5052344;28;20031;-76
2020/12/17 11:54:34;;;;;;;8.63;3.72;;;11.10;99.90;;;;;;5056367;28;20025;-76
2020/12/17 11:56:59;;;;;;;9.98;3.63;;;11.00;99.90;;;;;;5058206;28;20029;-75
2020/12/17 11:59:28;;;;;;;7.65;2.97;;;11.10;99.90;;;;;;5060755;28;20547;-76
2020/12/17 12:01:53;;;;;;;9.95;3.28;;;11.20;99.90;;;;;;5058660;28;20048;-75
2020/12/17 12:04:19;;;;;;;7.85;2.67;;;11.10;99.90;;;;;;5058880;28;20481;-75
2020/12/17 12:06:48;;;;;;;7.30;2.60;;;11.00;99.90;;;;;;5059925;28;20040;-75
2020/12/17 12:09:18;;;;;;;8.00;2.85;;;11.20;99.90;;;;;;5056747;28;20036;-75
2020/12/17 12:11:45;;;;;;;9.60;3.03;;;11.20;99.90;;;;;;5057949;28;20060;-75
2020/12/17 12:14:11;;;;;;;6.95;2.90;;;11.10;99.90;;;;;;5056495;28;20024;-75
2020/12/17 12:16:37;;;;;;;8.40;4.47;;;11.10;99.90;;;;;;5058097;28;20136;-75
2020/12/17 12:19:02;;;;;;;5.93;2.58;;;11.10;99.90;;;;;;5053125;28;20103;-75
2020/12/17 12:21:28;;;;;;;6.20;2.85;;;11.10;99.90;;;;;;5061448;28;20466;-75
2020/12/17 12:23:53;;;;;;;6.97;2.65;;;11.10;99.90;;;;;;5060731;28;20029;-75
2020/12/17 12:26:19;;;;;;;5.15;2.60;;;11.20;99.90;;;;;;5053062;28;20045;-75
2020/12/17 12:28:45;;;;;;;7.55;2.38;;;11.20;99.90;;;;;;5059212;28;20049;-75
2020/12/17 12:31:14;;;;;;;4.95;2.83;;;11.20;99.90;;;;;;5054950;28;20409;-75
2020/12/17 12:33:40;;;;;;;29.42;15.68;;;11.30;99.90;;;;;;5061327;28;20381;-75
2020/12/17 12:36:06;;;;;;;10.45;2.55;;;11.20;99.90;;;;;;5057367;28;20033;-75
2020/12/17 12:38:31;;;;;;;6.70;2.20;;;11.10;99.90;;;;;;5050838;28;20398;-75
2020/12/17 12:40:57;;;;;;;10.38;3.17;;;11.00;99.90;;;;;;5055956;28;20134;-75
2020/12/17 12:43:23;;;;;;;17.48;9.80;;;11.10;99.90;;;;;;5060631;28;20591;-75